Date,TemperatureHighF,TemperatureAvgF,TemperatureLowF,DewpointHighF,DewpointAvgF,DewpointLowF,HumidityHigh,HumidityAvg,HumidityLow,PressureMaxIn,PressureMinIn,WindSpeedMaxMPH,WindSpeedAvgMPH,GustSpeedMaxMPH,PrecipitationSumIn
2013-5-2,47,43,41,38,35,30,81,72,50,29.35,29.32,8,2,8,0.04
2013-5-3,49,43,37,41,35,27,85,74,64,29.32,29.12,4,0,5,0.04
2013-5-4,72,58,47,41,30,22,74,40,19,29.21,29.12,10,1,12,0.00
2013-5-5,75,59,46,34,26,18,60,32,17,29.21,29.15,8,1,10,0.00
2013-5-6,75,60,48,31,23,14,50,26,16,29.21,29.15,8,1,8,0.00
2013-5-7,92,63,45,31,25,17,56,26,13,29.21,29.15,6,0,6,0.00
2013-5-8,88,64,46,41,28,18,70,31,13,29.21,29.12,6,0,6,0.00
2013-5-9,75,58,45,55,36,28,86,49,21,29.15,29.03,6,0,7,0.04
2013-5-10,46,44,42,42,36,30,87,75,55,29.15,28.97,0,0,0,0.04
2013-5-11,65,48,39,42,24,8,81,46,18,29.21,29.00,6,1,10,0.00
2013-5-12,77,46,34,24,13,7,45,27,16,29.29,29.21,9,1,9,0.00
2013-5-13,84,50,33,29,19,12,70,33,14,29.35,29.18,6,0,10,0.00
2013-5-14,116,72,50,44,28,14,29,20,9,29.18,28.79,8,1,8,0.00
2013-5-15,109,74,57,39,31,24,51,22,8,29.00,28.79,6,1,8,0.00
2013-5-16,108,68,54,40,29,15,57,27,8,29.15,29.00,5,0,7,0.00
2013-5-17,69,59,51,30,26,18,39,28,22,29.23,29.12,5,0,6,0.00
2013-5-18,90,67,51,49,38,28,70,38,18,29.23,29.12,4,0,4,0.00
2013-5-19,106,75,58,50,42,34,68,35,12,29.15,28.94,8,0,8,0.00
2013-5-20,109,80,65,57,41,28,75,29,9,28.94,28.85,6,1,6,0.04
2013-5-21,98,72,60,59,44,29,84,45,13,28.91,28.82,7,0,8,0.04
2013-5-22,83,66,54,61,50,32,82,61,20,28.94,28.82,5,0,6,0.28
2013-5-23,65,49,39,48,33,16,84,56,24,29.50,28.94,4,0,4,0.00
2013-5-24,76,49,34,27,19,14,65,33,15,29.65,29.47,3,0,4,0.00
2013-5-25,59,50,39,27,22,15,56,35,23,29.59,29.47,3,0,4,0.00
2013-5-26,73,55,39,36,26,20,68,35,19,29.50,29.32,4,0,4,0.00
2013-5-27,58,55,51,50,44,26,82,67,36,29.32,29.06,4,0,4,0.00
2013-5-28,82,68,54,63,54,44,85,64,33,29.06,28.88,6,0,8,0.16
2013-5-29,114,77,64,72,51,37,84,51,10,29.15,28.97,4,0,4,0.08
2013-5-30,98,77,63,57,46,34,66,34,18,29.09,28.94,9,1,9,0.00
2013-5-31,81,71,63,62,51,39,85,54,25,29.03,28.88,4,0,5,0.12
2013-6-1,98,70,61,60,50,37,81,52,17,28.94,28.82,7,0,8,0.00
2013-6-2,61,56,45,55,39,28,83,55,31,29.23,28.88,5,0,5,0.00
2013-6-3,102,60,41,45,30,17,77,40,10,29.32,29.21,4,0,4,0.00
2013-6-4,78,60,46,36,26,21,57,30,15,29.35,29.26,4,0,4,0.00
2013-6-5,66,58,52,43,33,25,72,39,25,29.29,29.15,4,0,4,0.00
2013-6-6,71,56,52,50,40,26,84,61,23,29.15,29.09,4,0,4,0.28
2013-6-7,87,60,49,37,28,16,63,33,14,29.15,29.09,6,0,6,0.00
2013-6-8,92,62,44,35,27,22,62,31,13,29.21,29.12,4,0,5,0.00
2013-6-9,84,68,53,39,34,28,49,30,19,29.21,29.00,6,0,6,0.00
2013-6-10,91,68,58,60,49,37,81,55,18,29.06,28.94,4,0,4,0.00
2013-6-11,110,74,60,55,44,34,76,42,11,29.12,28.97,4,0,5,0.00
2013-6-12,95,71,63,63,50,38,84,52,18,29.12,28.79,4,0,7,0.20
2013-6-13,96,68,57,58,41,30,85,44,14,29.23,28.85,4,0,5,0.00
2013-6-14,106,66,52,43,34,25,68,34,9,29.35,29.21,4,0,4,0.00
2013-6-15,108,70,56,62,45,30,80,44,12,29.26,29.03,3,0,3,0.04
2013-6-16,112,79,65,55,42,27,63,33,8,29.12,29.06,5,0,7,0.00
2013-6-17,107,74,59,44,37,28,56,30,9,29.15,29.03,6,0,8,0.00
2013-6-18,86,62,54,47,34,23,72,39,16,29.26,29.15,2,0,2,0.00
2013-6-19,95,65,49,40,29,18,60,29,11,29.35,29.26,0,0,0,0.00
2013-6-20,104,74,56,42,34,18,41,25,12,29.38,29.26,0,0,0,0.00
2013-6-21,79,70,65,65,51,37,84,55,31,29.32,29.09,0,0,6,0.63
2013-6-22,91,73,66,68,57,46,85,61,21,29.38,29.18,0,0,0,0.28
2013-6-23,109,78,67,59,51,39,74,42,13,29.26,29.15,0,0,0,0.00
2013-6-24,74,72,71,62,58,50,71,61,46,29.29,29.21,0,0,0,0.00
2013-6-26,88,77,70,67,58,50,83,55,29,29.06,29.00,0,0,0,1.42
2013-6-27,112,79,68,72,59,36,82,58,10,29.06,28.97,6,0,7,1.14
2013-6-28,102,74,66,62,48,36,72,43,13,29.00,28.88,7,0,8,0.04
2013-6-29,84,67,63,57,47,33,73,52,20,29.06,28.88,3,0,4,1.14
2013-6-30,89,69,60,46,35,20,55,32,14,29.29,29.06,4,0,5,1.14
2013-7-1,85,68,57,37,30,24,46,26,15,29.41,29.29,5,1,6,0.00
2013-7-2,70,62,56,44,35,28,63,38,23,29.59,29.41,4,0,4,0.00
2013-7-3,81,63,59,59,51,39,78,66,31,29.80,29.44,3,0,3,1.14
2013-7-4,107,73,57,58,45,35,79,44,12,29.94,29.35,4,0,4,1.14
2013-7-5,105,76,62,52,43,32,64,34,12,29.62,29.32,3,0,4,1.14
2013-7-6,93,73,64,56,47,38,68,42,17,29.53,29.35,3,0,4,1.14
2013-7-18,103,86,82,55,51,43,40,31,15,29.38,29.32,4,0,4,0.00
2013-7-19,109,84,68,66,50,38,82,36,11,29.35,29.15,7,1,8,1.14
2013-7-20,96,73,65,65,54,34,84,61,14,29.56,29.26,3,0,4,0.00